sensor_id;sensor_type;location;lat;lon;timestamp;P1;durP1;ratioP1;P2;durP2;ratioP2
19891;SDS011;10108;50.142;8.724;2022-07-05T00:00:51;8.77;;;5.80;;
19891;SDS011;10108;50.142;8.724;2022-07-05T00:03:17;8.45;;;5.95;;
19891;SDS011;10108;50.142;8.724;2022-07-05T00:05:43;7.80;;;5.95;;
19891;SDS011;10108;50.142;8.724;2022-07-05T00:08:10;11.65;;;5.97;;
19891;SDS011;10108;50.142;8.724;2022-07-05T00:10:36;7.38;;;5.70;;
19891;SDS011;10108;50.142;8.724;2022-07-05T00:13:02;9.10;;;6.82;;
19891;SDS011;10108;50.142;8.724;2022-07-05T00:15:29;7.55;;;6.00;;
19891;SDS011;10108;50.142;8.724;2022-07-05T00:17:56;7.97;;;5.90;;
19891;SDS011;10108;50.142;8.724;2022-07-05T00:20:22;8.38;;;5.70;;
19891;SDS011;10108;50.142;8.724;2022-07-05T00:22:48;10.43;;;6.20;;
19891;SDS011;10108;50.142;8.724;2022-07-05T00:25:15;7.80;;;5.63;;
19891;SDS011;10108;50.142;8.724;2022-07-05T00:27:41;7.15;;;5.75;;
19891;SDS011;10108;50.142;8.724;2022-07-05T00:30:08;6.75;;;6.05;;
19891;SDS011;10108;50.142;8.724;2022-07-05T00:32:36;9.30;;;5.63;;
19891;SDS011;10108;50.142;8.724;2022-07-05T00:35:03;7.45;;;6.03;;
19891;SDS011;10108;50.142;8.724;2022-07-05T00:37:30;7.40;;;6.00;;
19891;SDS011;10108;50.142;8.724;2022-07-05T00:39:56;10.25;;;5.80;;
19891;SDS011;10108;50.142;8.724;2022-07-05T00:42:22;7.32;;;6.03;;
19891;SDS011;10108;50.142;8.724;2022-07-05T00:44:48;6.93;;;5.88;;
19891;SDS011;10108;50.142;8.724;2022-07-05T00:47:14;9.68;;;6.07;;
19891;SDS011;10108;50.142;8.724;2022-07-05T00:49:42;10.73;;;5.95;;
19891;SDS011;10108;50.142;8.724;2022-07-05T00:52:09;11.88;;;6.13;;
19891;SDS011;10108;50.142;8.724;2022-07-05T00:54:37;8.57;;;6.10;;
19891;SDS011;10108;50.142;8.724;2022-07-05T00:57:04;9.75;;;6.10;;
19891;SDS011;10108;50.142;8.724;2022-07-05T00:59:31;7.53;;;5.93;;
19891;SDS011;10108;50.142;8.724;2022-07-05T01:01:58;8.30;;;5.80;;
19891;SDS011;10108;50.142;8.724;2022-07-05T01:04:24;6.57;;;5.88;;
19891;SDS011;10108;50.142;8.724;2022-07-05T01:06:51;8.10;;;5.93;;
19891;SDS011;10108;50.142;8.724;2022-07-05T01:09:19;8.20;;;6.13;;
19891;SDS011;10108;50.142;8.724;2022-07-05T01:11:47;9.00;;;6.05;;
19891;SDS011;10108;50.142;8.724;2022-07-05T01:14:18;8.32;;;5.78;;
19891;SDS011;10108;50.142;8.724;2022-07-05T01:16:47;9.35;;;6.22;;
19891;SDS011;10108;50.142;8.724;2022-07-05T01:19:14;8.23;;;6.47;;
19891;SDS011;10108;50.142;8.724;2022-07-05T01:21:42;7.93;;;6.00;;
19891;SDS011;10108;50.142;8.724;2022-07-05T01:24:10;10.68;;;6.10;;
19891;SDS011;10108;50.142;8.724;2022-07-05T01:26:39;6.68;;;5.75;;
19891;SDS011;10108;50.142;8.724;2022-07-05T01:29:06;7.38;;;6.18;;
19891;SDS011;10108;50.142;8.724;2022-07-05T01:31:35;8.55;;;5.85;;
19891;SDS011;10108;50.142;8.724;2022-07-05T01:34:03;6.78;;;6.00;;
19891;SDS011;10108;50.142;8.724;2022-07-05T01:36:30;9.60;;;6.20;;
19891;SDS011;10108;50.142;8.724;2022-07-05T01:38:58;6.95;;;5.88;;
19891;SDS011;10108;50.142;8.724;2022-07-05T01:41:25;11.10;;;6.40;;
19891;SDS011;10108;50.142;8.724;2022-07-05T01:43:51;9.55;;;6.20;;
19891;SDS011;10108;50.142;8.724;2022-07-05T01:46:17;7.63;;;6.30;;
19891;SDS011;10108;50.142;8.724;2022-07-05T01:48:47;8.82;;;6.15;;
19891;SDS011;10108;50.142;8.724;2022-07-05T01:51:26;7.95;;;6.30;;
19891;SDS011;10108;50.142;8.724;2022-07-05T01:53:58;9.05;;;6.38;;
19891;SDS011;10108;50.142;8.724;2022-07-05T01:56:24;8.00;;;6.10;;
19891;SDS011;10108;50.142;8.724;2022-07-05T01:58:51;8.38;;;6.20;;
19891;SDS011;10108;50.142;8.724;2022-07-05T02:01:31;8.30;;;6.20;;
19891;SDS011;10108;50.142;8.724;2022-07-05T02:04:03;8.05;;;6.13;;
19891;SDS011;10108;50.142;8.724;2022-07-05T02:06:30;7.97;;;5.90;;
19891;SDS011;10108;50.142;8.724;2022-07-05T02:08:58;7.97;;;6.10;;
19891;SDS011;10108;50.142;8.724;2022-07-05T02:11:26;8.20;;;5.88;;
19891;SDS011;10108;50.142;8.724;2022-07-05T02:13:52;7.78;;;6.10;;
19891;SDS011;10108;50.142;8.724;2022-07-05T02:16:21;6.57;;;5.90;;
19891;SDS011;10108;50.142;8.724;2022-07-05T02:18:49;7.47;;;6.18;;
19891;SDS011;10108;50.142;8.724;2022-07-05T02:21:15;8.68;;;6.28;;
19891;SDS011;10108;50.142;8.724;2022-07-05T02:23:43;6.95;;;6.20;;
19891;SDS011;10108;50.142;8.724;2022-07-05T02:26:09;7.32;;;6.43;;
19891;SDS011;10108;50.142;8.724;2022-07-05T02:28:38;7.90;;;6.15;;
19891;SDS011;10108;50.142;8.724;2022-07-05T02:31:05;9.20;;;6.32;;
19891;SDS011;10108;50.142;8.724;2022-07-05T02:33:31;7.85;;;6.30;;
19891;SDS011;10108;50.142;8.724;2022-07-05T02:36:01;7.35;;;6.63;;
19891;SDS011;10108;50.142;8.724;2022-07-05T02:38:32;8.68;;;6.53;;
19891;SDS011;10108;50.142;8.724;2022-07-05T02:40:58;7.03;;;6.32;;
19891;SDS011;10108;50.142;8.724;2022-07-05T02:43:25;7.75;;;6.38;;
19891;SDS011;10108;50.142;8.724;2022-07-05T02:45:51;7.47;;;6.30;;
19891;SDS011;10108;50.142;8.724;2022-07-05T02:48:17;9.40;;;6.55;;
19891;SDS011;10108;50.142;8.724;2022-07-05T02:50:43;8.20;;;6.30;;
19891;SDS011;10108;50.142;8.724;2022-07-05T02:53:10;9.80;;;6.57;;
19891;SDS011;10108;50.142;8.724;2022-07-05T02:55:37;7.47;;;6.65;;
19891;SDS011;10108;50.142;8.724;2022-07-05T02:58:04;7.80;;;6.55;;
19891;SDS011;10108;50.142;8.724;2022-07-05T03:00:31;10.75;;;6.47;;
19891;SDS011;10108;50.142;8.724;2022-07-05T03:02:58;9.88;;;6.80;;
19891;SDS011;10108;50.142;8.724;2022-07-05T03:05:26;7.85;;;6.80;;
19891;SDS011;10108;50.142;8.724;2022-07-05T03:07:57;8.02;;;6.57;;
19891;SDS011;10108;50.142;8.724;2022-07-05T03:10:25;8.13;;;6.75;;
19891;SDS011;10108;50.142;8.724;2022-07-05T03:12:52;7.72;;;6.53;;
19891;SDS011;10108;50.142;8.724;2022-07-05T03:15:19;7.18;;;6.47;;
19891;SDS011;10108;50.142;8.724;2022-07-05T03:17:45;10.15;;;6.50;;
19891;SDS011;10108;50.142;8.724;2022-07-05T03:20:14;7.97;;;6.80;;
19891;SDS011;10108;50.142;8.724;2022-07-05T03:22:40;7.32;;;6.57;;
19891;SDS011;10108;50.142;8.724;2022-07-05T03:25:06;10.38;;;6.65;;
19891;SDS011;10108;50.142;8.724;2022-07-05T03:27:33;9.00;;;6.78;;
19891;SDS011;10108;50.142;8.724;2022-07-05T03:30:00;7.60;;;6.80;;
19891;SDS011;10108;50.142;8.724;2022-07-05T03:32:29;9.15;;;6.68;;
19891;SDS011;10108;50.142;8.724;2022-07-05T03:34:56;8.15;;;6.50;;
19891;SDS011;10108;50.142;8.724;2022-07-05T03:37:22;9.05;;;6.40;;
19891;SDS011;10108;50.142;8.724;2022-07-05T03:39:48;10.70;;;6.85;;
19891;SDS011;10108;50.142;8.724;2022-07-05T03:42:14;7.47;;;6.60;;
19891;SDS011;10108;50.142;8.724;2022-07-05T03:44:40;7.95;;;6.70;;
19891;SDS011;10108;50.142;8.724;2022-07-05T03:47:06;8.13;;;6.85;;
19891;SDS011;10108;50.142;8.724;2022-07-05T03:49:33;9.73;;;6.65;;
19891;SDS011;10108;50.142;8.724;2022-07-05T03:52:00;7.55;;;6.53;;
19891;SDS011;10108;50.142;8.724;2022-07-05T03:54:26;7.93;;;6.70;;
19891;SDS011;10108;50.142;8.724;2022-07-05T03:56:52;10.95;;;6.45;;
19891;SDS011;10108;50.142;8.724;2022-07-05T03:59:19;8.23;;;6.70;;
19891;SDS011;10108;50.142;8.724;2022-07-05T04:01:46;9.20;;;6.60;;
19891;SDS011;10108;50.142;8.724;2022-07-05T04:04:14;9.50;;;6.53;;
19891;SDS011;10108;50.142;8.724;2022-07-05T04:06:40;10.18;;;6.60;;
19891;SDS011;10108;50.142;8.724;2022-07-05T04:09:06;8.70;;;6.60;;
19891;SDS011;10108;50.142;8.724;2022-07-05T04:11:33;8.02;;;6.40;;
19891;SDS011;10108;50.142;8.724;2022-07-05T04:13:59;10.52;;;6.13;;
19891;SDS011;10108;50.142;8.724;2022-07-05T04:16:25;7.45;;;6.20;;
19891;SDS011;10108;50.142;8.724;2022-07-05T04:18:52;8.43;;;6.35;;
19891;SDS011;10108;50.142;8.724;2022-07-05T04:21:19;9.43;;;7.05;;
19891;SDS011;10108;50.142;8.724;2022-07-05T04:23:46;9.75;;;6.70;;
19891;SDS011;10108;50.142;8.724;2022-07-05T04:26:12;8.43;;;6.72;;
19891;SDS011;10108;50.142;8.724;2022-07-05T04:28:43;7.57;;;6.60;;
19891;SDS011;10108;50.142;8.724;2022-07-05T04:31:12;8.70;;;6.80;;
19891;SDS011;10108;50.142;8.724;2022-07-05T04:33:43;7.10;;;6.40;;
19891;SDS011;10108;50.142;8.724;2022-07-05T04:36:11;8.07;;;6.40;;
19891;SDS011;10108;50.142;8.724;2022-07-05T04:38:38;8.45;;;6.60;;
19891;SDS011;10108;50.142;8.724;2022-07-05T04:41:05;8.48;;;6.70;;
19891;SDS011;10108;50.142;8.724;2022-07-05T04:43:32;8.30;;;6.80;;
19891;SDS011;10108;50.142;8.724;2022-07-05T04:46:01;7.57;;;6.43;;
19891;SDS011;10108;50.142;8.724;2022-07-05T04:48:27;7.95;;;6.60;;
19891;SDS011;10108;50.142;8.724;2022-07-05T04:50:54;7.97;;;6.53;;
19891;SDS011;10108;50.142;8.724;2022-07-05T04:53:21;7.60;;;6.22;;
19891;SDS011;10108;50.142;8.724;2022-07-05T04:55:47;9.05;;;6.78;;
19891;SDS011;10108;50.142;8.724;2022-07-05T04:58:13;9.77;;;6.88;;
19891;SDS011;10108;50.142;8.724;2022-07-05T05:00:39;9.20;;;6.85;;
19891;SDS011;10108;50.142;8.724;2022-07-05T05:03:05;8.57;;;6.28;;
19891;SDS011;10108;50.142;8.724;2022-07-05T05:05:31;11.55;;;6.70;;
19891;SDS011;10108;50.142;8.724;2022-07-05T05:07:57;9.35;;;6.85;;
19891;SDS011;10108;50.142;8.724;2022-07-05T05:10:23;8.93;;;6.82;;
19891;SDS011;10108;50.142;8.724;2022-07-05T05:12:50;7.60;;;6.68;;
19891;SDS011;10108;50.142;8.724;2022-07-05T05:15:16;9.95;;;6.55;;
19891;SDS011;10108;50.142;8.724;2022-07-05T05:17:42;7.85;;;6.30;;
19891;SDS011;10108;50.142;8.724;2022-07-05T05:20:12;7.80;;;6.85;;
19891;SDS011;10108;50.142;8.724;2022-07-05T05:22:41;9.98;;;6.60;;
19891;SDS011;10108;50.142;8.724;2022-07-05T05:25:07;8.00;;;6.30;;
19891;SDS011;10108;50.142;8.724;2022-07-05T05:27:34;9.73;;;7.20;;
19891;SDS011;10108;50.142;8.724;2022-07-05T05:30:00;8.15;;;7.00;;
19891;SDS011;10108;50.142;8.724;2022-07-05T05:32:26;9.13;;;6.60;;
19891;SDS011;10108;50.142;8.724;2022-07-05T05:34:52;9.75;;;6.50;;
19891;SDS011;10108;50.142;8.724;2022-07-05T05:37:18;7.47;;;6.35;;
19891;SDS011;10108;50.142;8.724;2022-07-05T05:39:45;9.65;;;6.80;;
19891;SDS011;10108;50.142;8.724;2022-07-05T05:42:11;9.02;;;6.63;;
19891;SDS011;10108;50.142;8.724;2022-07-05T05:44:37;8.85;;;6.50;;
19891;SDS011;10108;50.142;8.724;2022-07-05T05:47:03;9.57;;;6.90;;
19891;SDS011;10108;50.142;8.724;2022-07-05T05:49:29;7.50;;;6.25;;
19891;SDS011;10108;50.142;8.724;2022-07-05T05:51:55;7.40;;;6.32;;
19891;SDS011;10108;50.142;8.724;2022-07-05T05:54:21;7.85;;;6.53;;
19891;SDS011;10108;50.142;8.724;2022-07-05T05:56:48;10.93;;;6.20;;
19891;SDS011;10108;50.142;8.724;2022-07-05T05:59:14;8.95;;;6.70;;
19891;SDS011;10108;50.142;8.724;2022-07-05T06:01:40;8.85;;;6.22;;
19891;SDS011;10108;50.142;8.724;2022-07-05T06:04:06;8.02;;;6.70;;
19891;SDS011;10108;50.142;8.724;2022-07-05T06:06:32;8.77;;;6.43;;
19891;SDS011;10108;50.142;8.724;2022-07-05T06:08:58;12.10;;;6.65;;
19891;SDS011;10108;50.142;8.724;2022-07-05T06:11:24;10.80;;;7.00;;
19891;SDS011;10108;50.142;8.724;2022-07-05T06:13:50;8.20;;;7.28;;
19891;SDS011;10108;50.142;8.724;2022-07-05T06:16:16;11.68;;;6.80;;
19891;SDS011;10108;50.142;8.724;2022-07-05T06:18:43;9.75;;;6.90;;
19891;SDS011;10108;50.142;8.724;2022-07-05T06:21:09;9.77;;;7.22;;
19891;SDS011;10108;50.142;8.724;2022-07-05T06:23:35;8.95;;;6.47;;
19891;SDS011;10108;50.142;8.724;2022-07-05T06:26:01;9.82;;;7.22;;
19891;SDS011;10108;50.142;8.724;2022-07-05T06:28:27;9.98;;;7.55;;
19891;SDS011;10108;50.142;8.724;2022-07-05T06:30:53;9.35;;;7.00;;
19891;SDS011;10108;50.142;8.724;2022-07-05T06:33:20;9.38;;;7.57;;
19891;SDS011;10108;50.142;8.724;2022-07-05T06:35:46;11.15;;;7.10;;
19891;SDS011;10108;50.142;8.724;2022-07-05T06:38:12;10.52;;;7.43;;
19891;SDS011;10108;50.142;8.724;2022-07-05T06:40:39;8.52;;;7.15;;
19891;SDS011;10108;50.142;8.724;2022-07-05T06:43:10;10.60;;;7.18;;
19891;SDS011;10108;50.142;8.724;2022-07-05T06:45:44;10.32;;;7.60;;
19891;SDS011;10108;50.142;8.724;2022-07-05T06:48:10;10.35;;;7.57;;
19891;SDS011;10108;50.142;8.724;2022-07-05T06:50:38;8.52;;;7.72;;
19891;SDS011;10108;50.142;8.724;2022-07-05T06:53:06;27.40;;;9.93;;
19891;SDS011;10108;50.142;8.724;2022-07-05T06:55:32;15.88;;;8.20;;
19891;SDS011;10108;50.142;8.724;2022-07-05T06:57:59;10.63;;;7.40;;
19891;SDS011;10108;50.142;8.724;2022-07-05T07:00:27;13.68;;;7.75;;
19891;SDS011;10108;50.142;8.724;2022-07-05T07:02:54;8.82;;;7.00;;
19891;SDS011;10108;50.142;8.724;2022-07-05T07:05:20;14.95;;;7.93;;
19891;SDS011;10108;50.142;8.724;2022-07-05T07:07:47;9.90;;;7.40;;
19891;SDS011;10108;50.142;8.724;2022-07-05T07:10:32;11.15;;;6.93;;
19891;SDS011;10108;50.142;8.724;2022-07-05T07:12:58;9.75;;;7.18;;
19891;SDS011;10108;50.142;8.724;2022-07-05T07:15:26;9.32;;;6.78;;
19891;SDS011;10108;50.142;8.724;2022-07-05T07:17:54;9.18;;;6.82;;
19891;SDS011;10108;50.142;8.724;2022-07-05T07:20:20;10.13;;;6.70;;
19891;SDS011;10108;50.142;8.724;2022-07-05T07:22:47;8.63;;;6.75;;
19891;SDS011;10108;50.142;8.724;2022-07-05T07:25:13;12.38;;;6.95;;
19891;SDS011;10108;50.142;8.724;2022-07-05T07:27:42;11.25;;;7.35;;
19891;SDS011;10108;50.142;8.724;2022-07-05T07:30:14;10.05;;;7.38;;
19891;SDS011;10108;50.142;8.724;2022-07-05T07:32:41;8.90;;;6.78;;
19891;SDS011;10108;50.142;8.724;2022-07-05T07:35:08;9.68;;;6.68;;
19891;SDS011;10108;50.142;8.724;2022-07-05T07:37:34;8.30;;;6.88;;
19891;SDS011;10108;50.142;8.724;2022-07-05T07:40:02;10.02;;;6.80;;
19891;SDS011;10108;50.142;8.724;2022-07-05T07:42:29;9.80;;;6.72;;
19891;SDS011;10108;50.142;8.724;2022-07-05T07:44:55;9.43;;;6.43;;
19891;SDS011;10108;50.142;8.724;2022-07-05T07:47:21;8.82;;;6.85;;
19891;SDS011;10108;50.142;8.724;2022-07-05T07:49:47;13.98;;;7.13;;
19891;SDS011;10108;50.142;8.724;2022-07-05T07:52:14;8.77;;;6.68;;
19891;SDS011;10108;50.142;8.724;2022-07-05T07:54:40;9.75;;;6.82;;
19891;SDS011;10108;50.142;8.724;2022-07-05T07:57:07;9.13;;;6.70;;
19891;SDS011;10108;50.142;8.724;2022-07-05T07:59:33;11.98;;;6.93;;
19891;SDS011;10108;50.142;8.724;2022-07-05T08:02:00;9.13;;;6.70;;
19891;SDS011;10108;50.142;8.724;2022-07-05T08:04:26;8.45;;;6.32;;
19891;SDS011;10108;50.142;8.724;2022-07-05T08:06:52;8.40;;;6.70;;
19891;SDS011;10108;50.142;8.724;2022-07-05T08:09:18;10.68;;;7.00;;
19891;SDS011;10108;50.142;8.724;2022-07-05T08:11:45;8.80;;;6.88;;
19891;SDS011;10108;50.142;8.724;2022-07-05T08:14:13;11.73;;;7.22;;
19891;SDS011;10108;50.142;8.724;2022-07-05T08:16:40;9.60;;;7.15;;
19891;SDS011;10108;50.142;8.724;2022-07-05T08:19:06;8.98;;;6.53;;
19891;SDS011;10108;50.142;8.724;2022-07-05T08:21:51;10.15;;;6.95;;
19891;SDS011;10108;50.142;8.724;2022-07-05T08:24:17;12.00;;;6.95;;
19891;SDS011;10108;50.142;8.724;2022-07-05T08:26:43;9.57;;;6.88;;
19891;SDS011;10108;50.142;8.724;2022-07-05T08:29:11;9.65;;;6.80;;
19891;SDS011;10108;50.142;8.724;2022-07-05T08:31:39;12.02;;;7.03;;
19891;SDS011;10108;50.142;8.724;2022-07-05T08:34:11;11.75;;;6.75;;
19891;SDS011;10108;50.142;8.724;2022-07-05T08:36:37;10.10;;;6.40;;
19891;SDS011;10108;50.142;8.724;2022-07-05T08:39:05;7.43;;;6.50;;
19891;SDS011;10108;50.142;8.724;2022-07-05T08:41:32;8.27;;;6.60;;
19891;SDS011;10108;50.142;8.724;2022-07-05T08:44:01;9.75;;;6.50;;
19891;SDS011;10108;50.142;8.724;2022-07-05T08:46:29;8.95;;;6.57;;
19891;SDS011;10108;50.142;8.724;2022-07-05T08:48:58;7.60;;;6.07;;
19891;SDS011;10108;50.142;8.724;2022-07-05T08:51:27;8.75;;;6.45;;
19891;SDS011;10108;50.142;8.724;2022-07-05T08:53:54;8.45;;;7.18;;
19891;SDS011;10108;50.142;8.724;2022-07-05T08:56:23;11.18;;;7.10;;
19891;SDS011;10108;50.142;8.724;2022-07-05T08:58:49;8.88;;;6.30;;
19891;SDS011;10108;50.142;8.724;2022-07-05T09:01:16;10.93;;;6.80;;
19891;SDS011;10108;50.142;8.724;2022-07-05T09:03:43;8.77;;;6.60;;
19891;SDS011;10108;50.142;8.724;2022-07-05T09:06:13;8.20;;;6.57;;
19891;SDS011;10108;50.142;8.724;2022-07-05T09:08:42;8.20;;;6.50;;
19891;SDS011;10108;50.142;8.724;2022-07-05T09:11:11;10.30;;;6.75;;
19891;SDS011;10108;50.142;8.724;2022-07-05T09:13:39;8.45;;;6.50;;
19891;SDS011;10108;50.142;8.724;2022-07-05T09:16:13;9.27;;;6.53;;
19891;SDS011;10108;50.142;8.724;2022-07-05T09:18:43;7.57;;;6.40;;
19891;SDS011;10108;50.142;8.724;2022-07-05T09:24:13;9.80;;;6.70;;
19891;SDS011;10108;50.142;8.724;2022-07-05T09:26:39;9.80;;;6.50;;
19891;SDS011;10108;50.142;8.724;2022-07-05T09:29:06;9.93;;;6.60;;
19891;SDS011;10108;50.142;8.724;2022-07-05T09:31:35;11.70;;;6.85;;
19891;SDS011;10108;50.142;8.724;2022-07-05T09:34:16;8.98;;;6.55;;
19891;SDS011;10108;50.142;8.724;2022-07-05T09:36:54;13.15;;;6.70;;
19891;SDS011;10108;50.142;8.724;2022-07-05T09:42:12;9.40;;;6.80;;
19891;SDS011;10108;50.142;8.724;2022-07-05T09:44:48;10.65;;;6.18;;
19891;SDS011;10108;50.142;8.724;2022-07-05T09:47:18;8.30;;;6.40;;
19891;SDS011;10108;50.142;8.724;2022-07-05T09:49:49;8.38;;;6.40;;
19891;SDS011;10108;50.142;8.724;2022-07-05T09:57:28;8.55;;;6.00;;
19891;SDS011;10108;50.142;8.724;2022-07-05T10:00:04;7.82;;;6.40;;
19891;SDS011;10108;50.142;8.724;2022-07-05T10:02:37;7.57;;;6.50;;
19891;SDS011;10108;50.142;8.724;2022-07-05T10:05:07;9.23;;;6.28;;
19891;SDS011;10108;50.142;8.724;2022-07-05T10:07:35;6.90;;;6.20;;
19891;SDS011;10108;50.142;8.724;2022-07-05T10:10:02;6.72;;;6.10;;
19891;SDS011;10108;50.142;8.724;2022-07-05T10:12:29;7.32;;;6.53;;
19891;SDS011;10108;50.142;8.724;2022-07-05T10:14:56;7.18;;;6.47;;
19891;SDS011;10108;50.142;8.724;2022-07-05T10:17:25;7.30;;;6.18;;
19891;SDS011;10108;50.142;8.724;2022-07-05T10:19:53;7.63;;;6.40;;
19891;SDS011;10108;50.142;8.724;2022-07-05T10:22:22;8.13;;;6.20;;
19891;SDS011;10108;50.142;8.724;2022-07-05T10:24:48;6.72;;;6.03;;
19891;SDS011;10108;50.142;8.724;2022-07-05T10:27:15;7.38;;;6.57;;
19891;SDS011;10108;50.142;8.724;2022-07-05T10:29:43;7.85;;;6.30;;
19891;SDS011;10108;50.142;8.724;2022-07-05T10:32:09;8.05;;;6.28;;
19891;SDS011;10108;50.142;8.724;2022-07-05T10:34:37;10.38;;;6.53;;
19891;SDS011;10108;50.142;8.724;2022-07-05T10:37:04;9.00;;;6.53;;
19891;SDS011;10108;50.142;8.724;2022-07-05T10:39:31;7.13;;;6.35;;
19891;SDS011;10108;50.142;8.724;2022-07-05T10:41:57;6.75;;;6.05;;
19891;SDS011;10108;50.142;8.724;2022-07-05T10:44:33;7.68;;;6.00;;
19891;SDS011;10108;50.142;8.724;2022-07-05T10:47:06;11.68;;;6.60;;
19891;SDS011;10108;50.142;8.724;2022-07-05T10:49:35;6.65;;;5.95;;
19891;SDS011;10108;50.142;8.724;2022-07-05T10:52:02;8.18;;;6.30;;
19891;SDS011;10108;50.142;8.724;2022-07-05T10:54:29;8.70;;;5.97;;
19891;SDS011;10108;50.142;8.724;2022-07-05T10:57:39;8.05;;;6.47;;
19891;SDS011;10108;50.142;8.724;2022-07-05T11:00:07;6.68;;;6.07;;
19891;SDS011;10108;50.142;8.724;2022-07-05T11:02:36;7.25;;;6.30;;
19891;SDS011;10108;50.142;8.724;2022-07-05T11:05:03;6.75;;;6.03;;
19891;SDS011;10108;50.142;8.724;2022-07-05T11:07:56;8.75;;;6.28;;
19891;SDS011;10108;50.142;8.724;2022-07-05T11:10:25;8.68;;;6.22;;
19891;SDS011;10108;50.142;8.724;2022-07-05T11:12:52;7.03;;;6.07;;
19891;SDS011;10108;50.142;8.724;2022-07-05T11:15:18;7.80;;;6.03;;
19891;SDS011;10108;50.142;8.724;2022-07-05T11:17:44;8.27;;;5.90;;
19891;SDS011;10108;50.142;8.724;2022-07-05T11:20:11;7.85;;;6.50;;
19891;SDS011;10108;50.142;8.724;2022-07-05T11:22:39;8.07;;;6.65;;
19891;SDS011;10108;50.142;8.724;2022-07-05T11:25:07;7.45;;;6.20;;
19891;SDS011;10108;50.142;8.724;2022-07-05T11:27:36;9.02;;;6.47;;
19891;SDS011;10108;50.142;8.724;2022-07-05T11:30:22;6.95;;;6.22;;
19891;SDS011;10108;50.142;8.724;2022-07-05T11:32:49;8.18;;;6.20;;
19891;SDS011;10108;50.142;8.724;2022-07-05T11:35:16;7.05;;;6.35;;
19891;SDS011;10108;50.142;8.724;2022-07-05T11:40:30;9.73;;;6.68;;
19891;SDS011;10108;50.142;8.724;2022-07-05T11:42:58;8.80;;;6.70;;
19891;SDS011;10108;50.142;8.724;2022-07-05T11:45:25;11.07;;;6.50;;
19891;SDS011;10108;50.142;8.724;2022-07-05T11:47:54;8.80;;;6.07;;
19891;SDS011;10108;50.142;8.724;2022-07-05T11:50:26;9.05;;;6.93;;
19891;SDS011;10108;50.142;8.724;2022-07-05T11:52:53;9.02;;;6.80;;
19891;SDS011;10108;50.142;8.724;2022-07-05T11:55:20;14.00;;;7.00;;
19891;SDS011;10108;50.142;8.724;2022-07-05T11:57:49;7.47;;;6.72;;
19891;SDS011;10108;50.142;8.724;2022-07-05T12:02:57;7.97;;;6.85;;
19891;SDS011;10108;50.142;8.724;2022-07-05T12:05:23;9.27;;;6.50;;
19891;SDS011;10108;50.142;8.724;2022-07-05T12:07:54;10.68;;;7.00;;
19891;SDS011;10108;50.142;8.724;2022-07-05T12:10:20;8.98;;;6.90;;
19891;SDS011;10108;50.142;8.724;2022-07-05T12:13:06;8.02;;;6.47;;
19891;SDS011;10108;50.142;8.724;2022-07-05T12:15:34;6.93;;;6.22;;
19891;SDS011;10108;50.142;8.724;2022-07-05T12:18:01;7.07;;;6.22;;
19891;SDS011;10108;50.142;8.724;2022-07-05T12:20:29;6.90;;;5.95;;
19891;SDS011;10108;50.142;8.724;2022-07-05T12:22:59;7.82;;;6.50;;
19891;SDS011;10108;50.142;8.724;2022-07-05T12:25:27;8.65;;;5.95;;
19891;SDS011;10108;50.142;8.724;2022-07-05T12:27:54;6.95;;;6.25;;
19891;SDS011;10108;50.142;8.724;2022-07-05T12:30:22;6.95;;;6.25;;
19891;SDS011;10108;50.142;8.724;2022-07-05T12:32:53;8.65;;;6.53;;
19891;SDS011;10108;50.142;8.724;2022-07-05T12:35:33;8.40;;;6.38;;
19891;SDS011;10108;50.142;8.724;2022-07-05T12:38:09;6.88;;;5.72;;
19891;SDS011;10108;50.142;8.724;2022-07-05T12:40:46;8.90;;;5.72;;
19891;SDS011;10108;50.142;8.724;2022-07-05T12:43:25;8.35;;;6.35;;
19891;SDS011;10108;50.142;8.724;2022-07-05T12:46:01;8.02;;;6.35;;
19891;SDS011;10108;50.142;8.724;2022-07-05T12:48:35;10.80;;;6.18;;
19891;SDS011;10108;50.142;8.724;2022-07-05T12:51:02;7.75;;;6.22;;
19891;SDS011;10108;50.142;8.724;2022-07-05T12:53:30;8.18;;;6.30;;
19891;SDS011;10108;50.142;8.724;2022-07-05T12:56:15;7.13;;;6.10;;
19891;SDS011;10108;50.142;8.724;2022-07-05T12:59:01;7.70;;;6.22;;
19891;SDS011;10108;50.142;8.724;2022-07-05T13:01:34;8.65;;;6.38;;
19891;SDS011;10108;50.142;8.724;2022-07-05T13:04:09;9.02;;;6.40;;
19891;SDS011;10108;50.142;8.724;2022-07-05T13:06:45;7.90;;;6.47;;
19891;SDS011;10108;50.142;8.724;2022-07-05T13:09:13;8.07;;;6.63;;
19891;SDS011;10108;50.142;8.724;2022-07-05T13:11:40;9.38;;;6.25;;
19891;SDS011;10108;50.142;8.724;2022-07-05T13:14:07;7.93;;;6.70;;
19891;SDS011;10108;50.142;8.724;2022-07-05T13:16:33;7.97;;;6.40;;
19891;SDS011;10108;50.142;8.724;2022-07-05T13:19:12;10.77;;;6.20;;
19891;SDS011;10108;50.142;8.724;2022-07-05T13:21:38;8.35;;;6.90;;
19891;SDS011;10108;50.142;8.724;2022-07-05T13:24:04;7.60;;;6.60;;
19891;SDS011;10108;50.142;8.724;2022-07-05T13:26:31;7.50;;;6.43;;
19891;SDS011;10108;50.142;8.724;2022-07-05T13:28:57;9.40;;;6.30;;
19891;SDS011;10108;50.142;8.724;2022-07-05T13:31:23;8.68;;;6.50;;
19891;SDS011;10108;50.142;8.724;2022-07-05T13:33:49;8.15;;;6.15;;
19891;SDS011;10108;50.142;8.724;2022-07-05T13:36:16;7.22;;;6.53;;
19891;SDS011;10108;50.142;8.724;2022-07-05T13:38:42;7.97;;;6.47;;
19891;SDS011;10108;50.142;8.724;2022-07-05T13:41:08;7.82;;;6.28;;
19891;SDS011;10108;50.142;8.724;2022-07-05T13:43:34;7.57;;;6.28;;
19891;SDS011;10108;50.142;8.724;2022-07-05T13:46:00;7.80;;;6.50;;
19891;SDS011;10108;50.142;8.724;2022-07-05T13:48:26;8.70;;;6.47;;
19891;SDS011;10108;50.142;8.724;2022-07-05T13:50:52;7.10;;;6.40;;
19891;SDS011;10108;50.142;8.724;2022-07-05T13:53:18;6.95;;;6.25;;
19891;SDS011;10108;50.142;8.724;2022-07-05T13:55:45;9.52;;;7.10;;
19891;SDS011;10108;50.142;8.724;2022-07-05T13:58:11;8.60;;;6.78;;
19891;SDS011;10108;50.142;8.724;2022-07-05T14:00:37;10.50;;;6.70;;
19891;SDS011;10108;50.142;8.724;2022-07-05T14:03:04;7.90;;;6.40;;
19891;SDS011;10108;50.142;8.724;2022-07-05T14:05:30;7.88;;;6.50;;
19891;SDS011;10108;50.142;8.724;2022-07-05T14:07:56;6.82;;;6.13;;
19891;SDS011;10108;50.142;8.724;2022-07-05T14:10:22;8.40;;;6.40;;
19891;SDS011;10108;50.142;8.724;2022-07-05T14:12:48;7.30;;;6.35;;
19891;SDS011;10108;50.142;8.724;2022-07-05T14:15:14;11.48;;;6.88;;
19891;SDS011;10108;50.142;8.724;2022-07-05T14:17:40;7.80;;;6.70;;
19891;SDS011;10108;50.142;8.724;2022-07-05T14:20:07;9.05;;;6.50;;
19891;SDS011;10108;50.142;8.724;2022-07-05T14:22:33;9.55;;;6.47;;
19891;SDS011;10108;50.142;8.724;2022-07-05T14:24:59;7.68;;;6.65;;
19891;SDS011;10108;50.142;8.724;2022-07-05T14:27:25;7.55;;;6.75;;
19891;SDS011;10108;50.142;8.724;2022-07-05T14:29:52;7.35;;;6.40;;
19891;SDS011;10108;50.142;8.724;2022-07-05T14:32:18;10.68;;;6.68;;
19891;SDS011;10108;50.142;8.724;2022-07-05T14:34:44;8.10;;;6.50;;
19891;SDS011;10108;50.142;8.724;2022-07-05T14:37:10;9.00;;;6.72;;
19891;SDS011;10108;50.142;8.724;2022-07-05T14:39:37;7.57;;;6.57;;
19891;SDS011;10108;50.142;8.724;2022-07-05T14:42:03;8.00;;;6.60;;
19891;SDS011;10108;50.142;8.724;2022-07-05T14:44:29;7.72;;;6.90;;
19891;SDS011;10108;50.142;8.724;2022-07-05T14:46:56;46.35;;;7.97;;
19891;SDS011;10108;50.142;8.724;2022-07-05T14:49:22;13.20;;;6.78;;
19891;SDS011;10108;50.142;8.724;2022-07-05T14:51:48;8.00;;;6.70;;
19891;SDS011;10108;50.142;8.724;2022-07-05T14:54:15;11.73;;;7.05;;
19891;SDS011;10108;50.142;8.724;2022-07-05T14:56:41;9.15;;;6.90;;
19891;SDS011;10108;50.142;8.724;2022-07-05T14:59:07;11.27;;;7.38;;
19891;SDS011;10108;50.142;8.724;2022-07-05T15:01:33;8.88;;;6.97;;
19891;SDS011;10108;50.142;8.724;2022-07-05T15:03:59;9.23;;;7.40;;
19891;SDS011;10108;50.142;8.724;2022-07-05T15:06:25;9.23;;;7.32;;